Tiempo atmosférico en la estación meteorológica de Castell Del Ferro, Granada (235 m.)



Fecha
DESCASC
Temp. máxima en grados centígrados (hora)
DESCASC
Temp. mínima en grados centígrados (hora)
DESCASC
Temp. media en grados centígrados
DESCASC
Racha de viento máxima en m/sg (hora)
DESCASC
Velocidad máxima media en intervalos de 10 minutos(hora)
DESCASC
Precipitaciones diarias en mm
DESCASC
Precipitaciones de 00:00 a 06:00 en mm
DESCASC
Precipitaciones de 06:00 a 12:00 en mm
DESCASC
Precipitaciones de 12:00 a 18:00 en mm
DESCASC
Precipitaciones de 18:00 a 24:00 en mm
DESCASC

Gráficas

Temp. máximas Temp. mínimas Temp. medias Precipitaciones Rachas de viento máximas Velocidades máximas media en intervalos de 10 minutos

Datos horarios

Fecha y hora oficial Temperatura (ºC) Velocidad del viento (km/h) Dirección del viento Racha (km/h) Dirección de racha Precipitación (mm) Presión (hPa) Tendencia (hPa) Humedad (%)
2018-05-27 23:00:00 -- -- -- -- -- -- -- -- --
2018-05-27 22:00:00 20 22 Oeste 45 Sudoeste 0 -- -- 62
2018-05-27 21:00:00 19.7 32 Oeste 51 Oeste 0 -- -- 63
2018-05-27 20:00:00 21 28 Oeste 50 Oeste 0 -- -- 60
2018-05-27 19:00:00 21.6 30 Oeste 46 Oeste 0 -- -- 61
2018-05-27 18:00:00 22.9 24 Oeste 44 Oeste 0 -- -- 58
2018-05-27 17:00:00 22.7 24 Oeste 38 Oeste 0 -- -- 58
2018-05-27 16:00:00 22.7 23 Oeste 39 Oeste 0 -- -- 61
2018-05-27 15:00:00 22.6 18 Oeste 36 Sudoeste 0 -- -- 58
2018-05-27 14:00:00 22.2 22 Oeste 38 Oeste 0 -- -- 63
2018-05-27 13:00:00 23.3 22 Oeste 37 Sudoeste 0 -- -- 60
2018-05-27 12:00:00 23 15 Oeste 35 Sudoeste 0 -- -- 59
2018-05-27 11:00:00 22.5 8 Nordeste 15 Este 0 -- -- 72
2018-05-27 10:00:00 18.1 4 Este 12 Sur 0 -- -- 83
2018-05-27 09:00:00 18.5 7 Sur 23 Oeste 0 -- -- 73
2018-05-27 08:00:00 17.1 17 Oeste 27 Oeste 0.2 -- -- 87
2018-05-27 07:00:00 17.1 6 Oeste 14 Sur 0 -- -- 89
2018-05-27 06:00:00 17.3 5 Noroeste 19 Sudoeste 0 -- -- 87
2018-05-27 05:00:00 17.6 17 Sudoeste 31 Sudoeste 0 -- -- 81
2018-05-27 04:00:00 20 7 Sudoeste 17 Sudoeste 0 -- -- 54
2018-05-27 03:00:00 18.9 2 Sudoeste 6 Sudoeste 0 -- -- 58
2018-05-27 02:00:00 18.2 0 Calma 12 Oeste 0 -- -- 60
2018-05-27 01:00:00 17.2 3 Oeste 11 Sur 0 -- -- 64
2018-05-27 00:00:00 18.3 5 Sudoeste 9 Sudeste 0 -- -- 60
2018-05-26 23:00:00 19.3 6 Sudeste 12 Sudoeste 0 -- -- 58
2018-05-26 22:00:00 20.4 9 Oeste 27 Oeste 0 -- -- 52
2018-05-26 21:00:00 21.8 10 Sudoeste 27 Oeste 0 -- -- 47
2018-05-26 20:00:00 23.4 15 Oeste 33 Oeste 0 -- -- 46
2018-05-26 19:00:00 24.2 17 Oeste 32 Noroeste 0 -- -- 44
2018-05-26 18:00:00 25.2 17 Oeste 35 Oeste 0 -- -- 44
2018-05-26 17:00:00 25 23 Oeste 36 Sudoeste 0 -- -- 44
2018-05-26 16:00:00 25.5 18 Oeste 31 Oeste 0 -- -- 40
2018-05-26 15:00:00 25.7 13 Oeste 26 Noroeste 0 -- -- 41
2018-05-26 14:00:00 25.1 14 Oeste 33 Noroeste 0 -- -- 41
2018-05-26 13:00:00 23.6 15 Oeste 29 Oeste 0 -- -- 42
2018-05-26 12:00:00 24 12 Oeste 28 Oeste 0 -- -- 39
2018-05-26 11:00:00 23.4 11 Noroeste 25 Oeste 0 -- -- 40
2018-05-26 10:00:00 21.6 17 Oeste 31 Oeste 0 -- -- 43
2018-05-26 09:00:00 21.7 3 Norte 8 Noroeste 0 -- -- 45
2018-05-26 08:00:00 18.4 4 Oeste 9 Sudoeste 0 -- -- 52
2018-05-26 07:00:00 15.4 2 Sur 10 Sudeste 0 -- -- 61
2018-05-26 06:00:00 17 3 Nordeste 26 Sudoeste 0 -- -- 55
2018-05-26 05:00:00 17.3 17 Sudoeste 29 Sudoeste 0 -- -- 55
2018-05-26 04:00:00 16.9 19 Sudoeste 30 Sudoeste 0 -- -- 62
2018-05-26 03:00:00 16.9 19 Sudoeste 30 Oeste 0 -- -- 69
2018-05-26 02:00:00 17.6 17 Sudoeste 31 Sudoeste 0 -- -- 63
2018-05-26 01:00:00 18.3 15 Oeste 30 Oeste 0 -- -- 56
2018-05-26 00:00:00 19.2 19 Oeste 31 Oeste 0 -- -- 52
2018-05-25 23:00:00 19 20 Oeste 36 Oeste 0 -- -- 55
2018-05-25 22:00:00 19.1 21 Oeste 35 Oeste 0 -- -- 56
2018-05-25 21:00:00 19.7 21 Oeste 36 Noroeste 0 -- -- 56
2018-05-25 20:00:00 21.7 22 Noroeste 43 Oeste 0 -- -- 48
2018-05-25 19:00:00 21.7 22 Oeste 38 Oeste 0 -- -- 51
2018-05-25 18:00:00 22.7 19 Oeste 35 Oeste 0 -- -- 47
2018-05-25 17:00:00 22.8 20 Oeste 37 Oeste 0 -- -- 46
2018-05-25 16:00:00 22.2 18 Oeste 36 Oeste 0 -- -- 43
2018-05-25 15:00:00 22.3 15 Oeste 33 Oeste 0 -- -- 50
2018-05-25 14:00:00 21.5 19 Oeste 36 Oeste 0 -- -- 51
2018-05-25 13:00:00 21.4 20 Oeste 33 Oeste 0 -- -- 54
2018-05-25 12:00:00 21.2 16 Oeste 31 Sudoeste 0 -- -- 61
2018-05-25 11:00:00 19.9 18 Oeste 37 Oeste 0 -- -- 63
2018-05-25 10:00:00 17.5 20 Oeste 40 Sudoeste 0 -- -- 76
2018-05-25 09:00:00 18.1 20 Oeste 34 Sudoeste 0 -- -- 75
2018-05-25 08:00:00 17 13 Noroeste 39 Noroeste 0 -- -- 78
2018-05-25 07:00:00 17.4 18 Oeste 43 Oeste 0 -- -- 81
2018-05-25 06:00:00 20.5 14 Noroeste 40 Oeste 0 -- -- 50
2018-05-25 05:00:00 19.1 24 Oeste 42 Oeste 0 -- -- 70
2018-05-25 04:00:00 21.4 22 Oeste 46 Oeste 0 -- -- 55
2018-05-25 03:00:00 20.7 27 Oeste 45 Oeste 0 -- -- 60
2018-05-25 02:00:00 20.8 11 Noroeste 38 Oeste 0 -- -- 60
2018-05-25 01:00:00 19.8 10 Oeste 24 Oeste 0 -- -- 65
2018-05-25 00:00:00 19.4 13 Oeste 24 Oeste 0 -- -- 67
2018-05-24 23:00:00 19.7 4 Oeste 13 Sudoeste 0 -- -- 64
2018-05-24 22:00:00 19.6 12 Sudoeste 28 Oeste 0 -- -- 65
2018-05-24 21:00:00 20 13 Oeste 32 Oeste 0 -- -- 65
2018-05-24 20:00:00 20.9 22 Oeste 33 Oeste 0 -- -- 64
2018-05-24 19:00:00 22 22 Oeste 34 Oeste 0 -- -- 61
2018-05-24 18:00:00 23.1 19 Oeste 45 Oeste 0 -- -- 56
2018-05-24 17:00:00 22.9 23 Oeste 41 Oeste 0 -- -- 57
2018-05-24 16:00:00 23.6 20 Oeste 40 Oeste 0 -- -- 56
2018-05-24 15:00:00 24.4 12 Sudoeste 31 Sudoeste 0 -- -- 52
2018-05-24 14:00:00 24.6 8 Sudeste 19 Sudeste 0 -- -- 46
2018-05-24 13:00:00 24.1 6 Sudeste 14 Sudeste 0 -- -- 44
2018-05-24 12:00:00 24.1 6 Nordeste 12 Este 0 -- -- 50
2018-05-24 11:00:00 23.4 5 Este 10 Sudeste 0 -- -- 49
2018-05-24 10:00:00 23.5 7 Este 11 Nordeste 0 -- -- 50
2018-05-24 09:00:00 21.5 4 Este 8 Sudeste 0 -- -- 55
2018-05-24 08:00:00 18.7 0 Calma 8 Sudeste 0 -- -- 58
2018-05-24 07:00:00 19.2 7 Sur 11 Sudeste 0 -- -- 55
2018-05-24 06:00:00 19.4 3 Sudeste 10 Sur 0 -- -- 55
2018-05-24 05:00:00 21.2 2 Noroeste 14 Oeste 0 -- -- 47
2018-05-24 04:00:00 20.4 8 Oeste 12 Oeste 0 -- -- 50
2018-05-24 03:00:00 20.5 4 Sudeste 13 Oeste 0 -- -- 49
2018-05-24 02:00:00 20 3 Sudoeste 12 Oeste 0 -- -- 52
2018-05-24 01:00:00 20.2 10 Oeste 12 Oeste 0 -- -- 51
2018-05-24 00:00:00 19.4 3 Oeste 5 Sudoeste 0 -- -- 56
2018-05-23 23:00:00 19.6 3 Sur 9 Sudeste 0 -- -- 55
2018-05-23 22:00:00 20.3 3 Sur 6 Sudeste 0 -- -- 55
2018-05-23 21:00:00 21.6 3 Noroeste 17 Sur 0 -- -- 50
2018-05-23 20:00:00 23.9 9 Sudeste 16 Sudeste 0 -- -- 43
2018-05-23 19:00:00 24.8 7 Sudeste 15 Sudeste 0 -- -- 39
2018-05-23 18:00:00 24.4 5 Sudeste 13 Sudeste 0 -- -- 37
2018-05-23 17:00:00 24.4 9 Este 18 Este 0 -- -- 38
2018-05-23 16:00:00 24.6 8 Este 17 Este 0 -- -- 44
2018-05-23 15:00:00 25.4 9 Sudeste 18 Sudeste 0 -- -- 46
2018-05-23 14:00:00 24.8 6 Nordeste 15 Sudeste 0 -- -- 43
2018-05-23 13:00:00 23.5 7 Sudeste 15 Este 0 -- -- 45
2018-05-23 12:00:00 22.1 5 Sudeste 13 Este 0 -- -- 46
2018-05-23 11:00:00 20.6 3 Norte 14 Sudeste 0 -- -- 61
2018-05-23 10:00:00 20.6 6 Sudeste 12 Sudeste 0 -- -- 55
2018-05-23 09:00:00 21 2 Sur 9 Noroeste 0 -- -- 49
2018-05-23 08:00:00 18.1 2 Este 6 Oeste 0 -- -- 64
2018-05-23 07:00:00 17.9 3 Noroeste 8 Oeste 0 -- -- 60
2018-05-23 06:00:00 17.3 5 Oeste 8 Oeste 0 -- -- 66
2018-05-23 05:00:00 15.7 0 Calma 8 Sudeste 0 -- -- 74
2018-05-23 04:00:00 17.3 4 Sudoeste 8 Oeste 0 -- -- 65
2018-05-23 03:00:00 16.4 2 Sudeste 4 Sudeste 0 -- -- 73
2018-05-23 02:00:00 16.6 0 Calma 7 Sur 0 -- -- 74
2018-05-23 01:00:00 16.7 3 Sudeste 9 Sur 0 -- -- 79
2018-05-23 00:00:00 17.9 2 Sur 9 Sur 0 -- -- 67
2018-05-22 23:00:00 19 0 Calma 8 Oeste 0 -- -- 62
2018-05-22 22:00:00 19.5 4 Noroeste 7 Oeste 0 -- -- 64
2018-05-22 21:00:00 20.2 5 Oeste 7 Oeste 0 -- -- 67
2018-05-22 20:00:00 21.7 4 Este 11 Este 0 -- -- 66
2018-05-22 19:00:00 23.3 7 Este 11 Este 0 -- -- 58
2018-05-22 18:00:00 23.7 8 Nordeste 17 Norte 0 -- -- 58
2018-05-22 17:00:00 23.2 8 Nordeste 14 Nordeste 0 -- -- 67
2018-05-22 16:00:00 22.6 12 Este 22 Este 0 -- -- 65
2018-05-22 15:00:00 23.5 9 Sudeste 21 Sur 0 -- -- 61
2018-05-22 14:00:00 21.8 11 Este 20 Este 0 -- -- 67
2018-05-22 13:00:00 20.8 12 Sudeste 18 Nordeste 0 -- -- 72
2018-05-22 12:00:00 20.9 10 Este 21 Este 0 -- -- 74
2018-05-22 11:00:00 20.9 7 Este 17 Nordeste 0 -- -- 66
2018-05-22 10:00:00 20.5 8 Este 12 Sudeste 0 -- -- 71
2018-05-22 09:00:00 19.4 5 Este 11 Sudeste 0 -- -- 69
2018-05-22 08:00:00 17.2 0 Calma 3 Noroeste 0 -- -- 71
2018-05-22 07:00:00 15.1 0 Calma 6 Sudeste 0 -- -- 72
2018-05-22 06:00:00 15.9 0 Calma 6 Oeste 0 -- -- 70
2018-05-22 05:00:00 15.5 0 Calma 8 Sudeste 0 -- -- 74
2018-05-22 04:00:00 15.5 0 Calma 5 Sur 0 -- -- 76
2018-05-22 03:00:00 15.9 3 Sur 6 Sur 0 -- -- 76
2018-05-22 02:00:00 16.4 5 Sudeste 7 Sudeste 0 -- -- 74
2018-05-22 01:00:00 16.7 0 Calma 11 Sudoeste 0 -- -- 69
2018-05-22 00:00:00 16.5 2 Sur 9 Noroeste 0 -- -- 77
2018-05-21 23:00:00 17.6 5 Noroeste 15 Noroeste 0 -- -- 73
2018-05-21 22:00:00 17.6 3 Sur 23 Oeste 0 -- -- 70
2018-05-21 21:00:00 18.1 6 Oeste 20 Noroeste 0 -- -- 69
2018-05-21 20:00:00 20 7 Noroeste 36 Oeste 0 -- -- 62
2018-05-21 19:00:00 21.1 15 Oeste 31 Oeste 0 -- -- 56
2018-05-21 18:00:00 21.8 17 Oeste 30 Sur 0 -- -- 58
2018-05-21 17:00:00 22.6 10 Sudoeste 25 Oeste 0 -- -- 58
2018-05-21 16:00:00 20.9 8 Oeste 24 Sudeste 0 -- -- 70
2018-05-21 15:00:00 20.5 9 Sudoeste 26 Sudeste 0 -- -- 70
2018-05-21 14:00:00 21.1 12 Sudeste 26 Este 0 -- -- 73
2018-05-21 13:00:00 19.8 19 Sudeste 28 Sudeste 0 -- -- 78
2018-05-21 12:00:00 19.9 15 Sudeste 22 Sudeste 0 -- -- 75
2018-05-21 11:00:00 20.5 12 Este 19 Este 0 -- -- 74
2018-05-21 10:00:00 19.4 6 Este 14 Este 0 -- -- 75
2018-05-21 09:00:00 18.5 3 Este 8 Este 0 -- -- 74
2018-05-21 08:00:00 15.2 0 Calma 5 Sur 0 -- -- 87
2018-05-21 07:00:00 14.2 2 Sur 7 Sudeste 0 -- -- 86
2018-05-21 06:00:00 14.6 0 Calma 5 Sur 0 -- -- 85
2018-05-21 05:00:00 14.7 3 Sur 8 Sudeste 0 -- -- 84
2018-05-21 04:00:00 15.3 5 Sur 7 Sudeste 0 -- -- 82
2018-05-21 03:00:00 15.7 2 Sur 8 Oeste 0 -- -- 79
2018-05-21 02:00:00 16.1 0 Calma 8 Oeste 0 -- -- 78
2018-05-21 01:00:00 16.4 6 Oeste 8 Oeste 0 -- -- 84
2018-05-21 00:00:00 16.1 2 Sudeste 7 Sudoeste 0 -- -- 85
2018-05-20 23:00:00 16 3 Oeste 5 Oeste 0 -- -- 84
2018-05-20 22:00:00 16.3 2 Sudeste 5 Este 0 -- -- 82
2018-05-20 21:00:00 17.8 3 Este 6 Este 0 -- -- 77
2018-05-20 20:00:00 18.7 3 Nordeste 13 Oeste 0 -- -- 75
2018-05-20 19:00:00 19.7 8 Este 19 Sudeste 0 -- -- 72
2018-05-20 18:00:00 19.7 14 Sudeste 20 Este 0 -- -- 70
2018-05-20 17:00:00 19.5 9 Este 17 Este 0 -- -- 71
2018-05-20 16:00:00 18.3 11 Sudeste 24 Sudeste 0 -- -- 76
2018-05-20 15:00:00 20.2 10 Sudeste 23 Sudeste 0 -- -- 74
2018-05-20 14:00:00 19.9 12 Sudeste 23 Sur 0 -- -- 75
2018-05-20 13:00:00 19.3 11 Sudeste 19 Este 0 -- -- 76
2018-05-20 12:00:00 19.7 11 Este 17 Este 0 -- -- 76
2018-05-20 11:00:00 19.5 10 Este 18 Este 0 -- -- 77
2018-05-20 10:00:00 19 9 Este 14 Sudeste 0 -- -- 78
2018-05-20 09:00:00 18.3 5 Este 9 Este 0 -- -- 79
2018-05-20 08:00:00 15.7 0 Calma 7 Oeste 0 -- -- 85
2018-05-20 07:00:00 14.2 3 Oeste 5 Oeste 0 -- -- 86
2018-05-20 06:00:00 14.5 2 Sur 8 Sur 0 -- -- 85
2018-05-20 05:00:00 14.7 2 Sudeste 6 Sudoeste 0 -- -- 83
2018-05-20 04:00:00 14.9 0 Calma 4 Sur 0 -- -- 82
2018-05-20 03:00:00 15.1 2 Sur 4 Sudoeste 0 -- -- 81
2018-05-20 02:00:00 15.3 0 Calma 5 Oeste 0 -- -- 81
2018-05-20 01:00:00 15.6 0 Calma 8 Sur 0 -- -- 83
2018-05-20 00:00:00 16.3 3 Sur 8 Sudoeste 0 -- -- 80
2018-05-19 23:00:00 16.5 4 Oeste 5 Oeste 0 -- -- 80
2018-05-19 22:00:00 16.4 4 Sur 6 Sudoeste 0 -- -- 76
2018-05-19 21:00:00 17.6 5 Oeste 7 Oeste 0 -- -- 75
2018-05-19 20:00:00 18.3 2 Norte 8 Este 0 -- -- 69
2018-05-19 19:00:00 18.5 5 Este 12 Este 0 -- -- 71
2018-05-19 18:00:00 17.9 6 Sudeste 18 Sudeste 0 -- -- 75
2018-05-19 17:00:00 19.1 11 Este 19 Este 0 -- -- 69
2018-05-19 16:00:00 19.8 14 Sudeste 21 Sudeste 0 -- -- 66
2018-05-19 15:00:00 20.4 10 Este 19 Sudeste 0 -- -- 66
2018-05-19 14:00:00 19.9 10 Este 21 Sudeste 0 -- -- 68
2018-05-19 13:00:00 19.1 12 Sudeste 20 Sudeste 0 -- -- 69
2018-05-19 12:00:00 19.9 11 Este 20 Este 0 -- -- 67
2018-05-19 11:00:00 19.5 9 Este 17 Este 0 -- -- 68
2018-05-19 10:00:00 19.3 9 Este 14 Este 0 -- -- 68
2018-05-19 09:00:00 18.5 4 Nordeste 9 Norte 0 -- -- 69
2018-05-19 08:00:00 15.3 2 Norte 9 Sur 0 -- -- 80
2018-05-19 07:00:00 13.7 0 Calma 6 Sur 0 -- -- 83
2018-05-19 06:00:00 13.8 5 Sur 6 Sur 0 -- -- 84
2018-05-19 05:00:00 14.1 2 Sur 6 Sur 0 -- -- 82
2018-05-19 04:00:00 14.4 0 Calma 4 Sudoeste 0 -- -- 80
2018-05-19 03:00:00 14.7 3 Sur 4 Sur 0 -- -- 76
2018-05-19 02:00:00 14.7 3 Sur 6 Sudeste 0 -- -- 80
2018-05-19 01:00:00 15.1 0 Calma 5 Sudeste 0 -- -- 79
2018-05-19 00:00:00 15.3 0 Calma 4 Sudoeste 0 -- -- 80
2018-05-18 23:00:00 15.4 3 Sur 8 Sudeste 0 -- -- 78
2018-05-18 22:00:00 15.6 5 Sur 8 Sudeste 0 -- -- 77
2018-05-18 21:00:00 16.6 0 Calma 6 Sudeste 0 -- -- 72
2018-05-18 20:00:00 17.3 3 Este 8 Sudeste 0 -- -- 69
2018-05-18 19:00:00 17.5 4 Este 12 Nordeste 0 -- -- 73
2018-05-18 18:00:00 18.1 7 Este 11 Nordeste 0 -- -- 71
2018-05-18 17:00:00 18 6 Este 15 Sudeste 0 -- -- 72
2018-05-18 16:00:00 18.9 11 Este 21 Sudeste 0 -- -- 69
2018-05-18 15:00:00 19 12 Este 21 Este 0 -- -- 70
2018-05-18 14:00:00 19.5 13 Este 23 Sudeste 0 -- -- 68
2018-05-18 13:00:00 18.7 15 Este 24 Este 0 -- -- 72
2018-05-18 12:00:00 19 13 Sudeste 21 Este 0 -- -- 72
2018-05-18 11:00:00 19.3 8 Este 17 Este 0 -- -- 72
2018-05-18 10:00:00 18 10 Este 15 Sudeste 0 -- -- 78
2018-05-18 09:00:00 15.5 0 Calma 6 Sudeste 0 -- -- 88
2018-05-18 08:00:00 14.2 5 Sudeste 10 Sudeste 0 -- -- 92
2018-05-18 07:00:00 13 6 Oeste 8 Oeste 0 -- -- 83
2018-05-18 06:00:00 13.3 0 Calma 5 Sudoeste 0 -- -- 81
2018-05-18 05:00:00 13.3 0 Calma 5 Sudeste 0 -- -- 83
2018-05-18 04:00:00 13.8 4 Oeste 6 Oeste 0 -- -- 86
2018-05-18 03:00:00 13.9 0 Calma 8 Sudeste 0 -- -- 84
2018-05-18 02:00:00 14.9 3 Sudeste 12 Oeste 0 -- -- 81
2018-05-18 01:00:00 15.2 6 Oeste 12 Sudoeste 0 -- -- 83
2018-05-18 00:00:00 15.4 0 Calma 5 Sudeste 0 -- -- 83
2018-05-17 23:00:00 15.5 3 Sudoeste 9 Sudeste 0 -- -- 84
2018-05-17 22:00:00 15.5 5 Este 15 Este 0 -- -- 83
2018-05-17 21:00:00 15.8 10 Este 18 Este 0 -- -- 86
2018-05-17 20:00:00 16.4 10 Este 17 Sudeste 0 -- -- 85
2018-05-17 19:00:00 18.7 10 Este 17 Este 0 -- -- 73
2018-05-17 18:00:00 18.3 12 Sudeste 20 Sudeste 0.2 -- -- 70
2018-05-17 17:00:00 19.7 8 Sur 16 Sudeste 0 -- -- 62
2018-05-17 16:00:00 19.2 8 Sur 17 Sur 0 -- -- 63
2018-05-17 15:00:00 18.8 8 Sudoeste 19 Oeste 0 -- -- 66
2018-05-17 14:00:00 16.7 6 Noroeste 15 Este 0.4 -- -- 79
2018-05-17 13:00:00 14.9 11 Sudeste 20 Este 0.2 -- -- 89
2018-05-17 12:00:00 18 6 Norte 21 Sudoeste 0 -- -- 69
2018-05-17 11:00:00 18.1 14 Sur 23 Sur 0 -- -- 70
2018-05-17 10:00:00 19.3 6 Sur 14 Sudeste 0 -- -- 50
2018-05-17 09:00:00 19.3 3 Nordeste 6 Nordeste 0 -- -- 55
2018-05-17 08:00:00 17.3 0 Calma 8 Sur 0 -- -- 56
2018-05-17 07:00:00 16.4 2 Sur 14 Sudoeste 0 -- -- 53
2018-05-17 06:00:00 15.9 6 Sur 9 Sur 0 -- -- 55
2018-05-17 05:00:00 16.5 2 Sudoeste 15 Sudeste 0 -- -- 51
2018-05-17 04:00:00 18.3 8 Sur 14 Sudeste 0 -- -- 44
2018-05-17 03:00:00 19.5 7 Norte 26 Noroeste 0 -- -- 39
2018-05-17 02:00:00 16.4 11 Oeste 13 Oeste 0 -- -- 60
2018-05-17 01:00:00 16.1 6 Oeste 22 Oeste 0 -- -- 62
2018-05-17 00:00:00 16.4 13 Oeste 27 Sudoeste 0 -- -- 64
2018-05-16 23:00:00 16.3 0 Calma 8 Oeste 0 -- -- 61
2018-05-16 22:00:00 17.1 2 Oeste 12 Sudoeste 0 -- -- 59
2018-05-16 21:00:00 17.7 6 Sudoeste 23 Sudeste 0 -- -- 56
2018-05-16 20:00:00 17.9 13 Sudeste 26 Sudeste 0 -- -- 58
2018-05-16 19:00:00 18.9 15 Sudeste 33 Este 0 -- -- 55
2018-05-16 18:00:00 19.6 16 Este 31 Sudeste 0 -- -- 54
2018-05-16 17:00:00 20.3 16 Este 28 Sudeste 0 -- -- 53
2018-05-16 16:00:00 20.9 15 Este 28 Este 0 -- -- 51
2018-05-16 15:00:00 20.2 14 Este 26 Sudeste 0 -- -- 53
2018-05-16 14:00:00 20.6 16 Este 27 Este 0 -- -- 51
2018-05-16 13:00:00 20.3 12 Este 26 Nordeste 0 -- -- 54
2018-05-16 12:00:00 20.4 14 Este 21 Este 0 -- -- 53
2018-05-16 11:00:00 18.8 11 Sudeste 20 Este 0 -- -- 58
2018-05-16 10:00:00 18.1 13 Este 21 Sudeste 0 -- -- 63
2018-05-16 09:00:00 17.9 9 Este 17 Este 0 -- -- 58
2018-05-16 08:00:00 15.5 5 Este 13 Sudeste 0 -- -- 64
2018-05-16 07:00:00 13.8 6 Sur 10 Sudeste 0 -- -- 80
2018-05-16 06:00:00 13.6 5 Sudoeste 9 Sudoeste 0 -- -- 81
2018-05-16 05:00:00 13.6 3 Sur 9 Sur 0 -- -- 80
2018-05-16 04:00:00 14.3 7 Sur 12 Sur 0 -- -- 83
2018-05-16 03:00:00 15 5 Sudeste 9 Sudeste 0 -- -- 68
2018-05-16 02:00:00 15.7 3 Sudeste 13 Sur 0 -- -- 66
2018-05-16 01:00:00 15.4 7 Sudeste 12 Sudeste 0 -- -- 76
2018-05-16 00:00:00 14.8 4 Sur 8 Sur 0 -- -- 74
2018-05-15 23:00:00 15.1 4 Sur 9 Sur 0 -- -- 80
2018-05-15 22:00:00 15.7 0 Calma 6 Norte 0 -- -- 60
2018-05-15 21:00:00 16.4 4 Sur 7 Sudeste 0 -- -- 57
2018-05-15 20:00:00 17.8 3 Sudeste 10 Este 0 -- -- 59
2018-05-15 19:00:00 20.3 5 Este 11 Sudeste 0 -- -- 45
2018-05-15 18:00:00 20.2 8 Sudeste 13 Sudeste 0 -- -- 51
2018-05-15 17:00:00 20.9 7 Este 17 Nordeste 0 -- -- 47
2018-05-15 16:00:00 19.8 9 Este 22 Nordeste 0 -- -- 53
2018-05-15 15:00:00 19.9 11 Este 23 Este 0 -- -- 68
2018-05-15 14:00:00 20.7 14 Este 25 Este 0 -- -- 53
2018-05-15 13:00:00 20.4 16 Este 25 Nordeste 0 -- -- 50
2018-05-15 12:00:00 20.3 10 Este 22 Este 0 -- -- 52
2018-05-15 11:00:00 20.3 13 Este 21 Este 0 -- -- 45
2018-05-15 10:00:00 21.1 11 Este 16 Este 0 -- -- 34
2018-05-15 09:00:00 19.7 4 Oeste 8 Noroeste 0 -- -- 32
2018-05-15 08:00:00 16.2 2 Oeste 10 Sudeste 0 -- -- 42
2018-05-15 07:00:00 14.7 4 Sudeste 8 Sudeste 0 -- -- 35
2018-05-15 06:00:00 14.9 2 Oeste 8 Sudeste 0 -- -- 35
2018-05-15 05:00:00 15.2 2 Oeste 10 Oeste 0 -- -- 37
2018-05-15 04:00:00 14.7 5 Oeste 9 Oeste 0 -- -- 39
2018-05-15 03:00:00 15.7 3 Oeste 9 Sudoeste 0 -- -- 34
2018-05-15 02:00:00 16.9 3 Oeste 6 Oeste 0 -- -- 29
2018-05-15 01:00:00 16.2 2 Sudeste 6 Sudoeste 0 -- -- 30
2018-05-15 00:00:00 17.3 5 Oeste 10 Oeste 0 -- -- 28
2018-05-14 23:00:00 16.8 0 Calma 6 Sudoeste 0 -- -- 37
2018-05-14 22:00:00 17 3 Oeste 7 Oeste 0 -- -- 38
2018-05-14 21:00:00 17 3 Oeste 5 Oeste 0 -- -- 42
2018-05-14 20:00:00 18.8 2 Oeste 12 Sudeste 0 -- -- 45
2018-05-14 19:00:00 19.4 9 Sudeste 14 Este 0 -- -- 45
2018-05-14 18:00:00 19.8 10 Sudeste 18 Este 0 -- -- 45
2018-05-14 17:00:00 20.7 12 Este 21 Este 0 -- -- 47
2018-05-14 16:00:00 20.4 12 Este 23 Este 0 -- -- 46
2018-05-14 15:00:00 20.7 14 Este 21 Este 0 -- -- 48
2018-05-14 14:00:00 19.4 9 Este 18 Este 0 -- -- 57
2018-05-14 13:00:00 19.8 10 Este 16 Sudeste 0 -- -- 55
2018-05-14 12:00:00 19.3 9 Sudeste 15 Sudeste 0 -- -- 53
2018-05-14 11:00:00 18.9 10 Este 15 Sudeste 0 -- -- 55
2018-05-14 10:00:00 19.8 7 Este 10 Nordeste 0 -- -- 50
2018-05-14 09:00:00 18 2 Este 10 Sudeste 0 -- -- 50
2018-05-14 08:00:00 15.9 4 Sur 9 Sur 0 -- -- 54
2018-05-14 07:00:00 14.6 4 Oeste 8 Oeste 0 -- -- 53
2018-05-14 06:00:00 12.9 3 Oeste 5 Sur 0 -- -- 56
2018-05-14 05:00:00 13.2 3 Sur 5 Sudeste 0 -- -- 56
2018-05-14 04:00:00 13.6 0 Calma 4 Oeste 0 -- -- 54
2018-05-14 03:00:00 14.1 4 Oeste 6 Oeste 0 -- -- 50
2018-05-14 02:00:00 14.4 0 Calma 8 Sur 0 -- -- 49
2018-05-14 01:00:00 15.4 5 Sudoeste 10 Oeste 0 -- -- 46
2018-05-11 20:00:00 -- -- -- -- -- -- -- -- --
2018-05-11 19:00:00 -- -- -- -- -- -- -- -- --
2018-05-11 18:00:00 20.9 4 Este 19 Sudoeste 0 -- -- 73
2018-05-11 17:00:00 20 6 Sudoeste 21 Sur 0 -- -- 76
2018-05-11 16:00:00 20.3 9 Sudoeste 20 Sudeste 0 -- -- 75
2018-05-11 15:00:00 18.9 12 Sudeste 21 Sudeste 0 -- -- 80
2018-05-11 14:00:00 19.1 10 Sur 18 Sur 0 -- -- 80
2018-05-11 13:00:00 19.4 10 Sudeste 21 Este 0 -- -- 78
2018-05-11 12:00:00 21.3 14 Este 19 Este 0 -- -- 73
2018-05-11 11:00:00 20.7 8 Este 18 Este 0 -- -- 73
2018-05-11 10:00:00 19.8 6 Este 10 Este 0 -- -- 77
2018-05-11 09:00:00 18.5 3 Este 7 Nordeste 0 -- -- 82
2018-05-11 08:00:00 15.8 0 Calma 7 Oeste 0 -- -- 93
2018-05-11 07:00:00 14.6 6 Oeste 8 Oeste 0 -- -- 93
2018-05-11 06:00:00 14.9 5 Sudoeste 7 Sur 0 -- -- 93
2018-05-11 05:00:00 15.2 2 Sur 5 Sudoeste 0 -- -- 90
2018-05-11 04:00:00 15.8 0 Calma 9 Sur 0 -- -- 89
2018-05-11 03:00:00 16.1 4 Sudeste 12 Este 0 -- -- 85
2018-05-11 02:00:00 16.2 8 Sudeste 13 Sudeste 0 -- -- 87
2018-05-11 01:00:00 17.2 0 Calma 3 Noroeste 0 -- -- 78
2018-05-11 00:00:00 17.5 0 Calma 8 Sudeste 0 -- -- 76
2018-05-10 23:00:00 17.9 4 Sudeste 18 Este 0 -- -- 76
2018-05-10 22:00:00 19 11 Este 20 Este 0 -- -- 71
2018-05-10 21:00:00 20.2 10 Sudeste 17 Sudeste 0 -- -- 64
2018-05-10 20:00:00 21.2 4 Sudeste 8 Sudeste 0 -- -- 62
2018-05-10 19:00:00 23.2 4 Este 13 Este 0 -- -- 58
2018-05-10 18:00:00 23.8 8 Este 15 Este 0 -- -- 58
2018-05-10 17:00:00 23.6 9 Este 16 Sudeste 0 -- -- 57
2018-05-10 16:00:00 23.9 9 Nordeste 22 Este 0 -- -- 59
2018-05-10 15:00:00 23 8 Este 14 Sudeste 0 -- -- 61
2018-05-10 14:00:00 21.9 6 Este 15 Sudeste 0 -- -- 64
2018-05-10 13:00:00 21.8 9 Este 17 Este 0 -- -- 66
2018-05-10 12:00:00 22.8 9 Este 14 Este 0 -- -- 62
2018-05-10 11:00:00 21.1 4 Este 12 Sudeste 0 -- -- 69
2018-05-10 10:00:00 19.6 5 Este 14 Sudeste 0 -- -- 75
2018-05-10 09:00:00 18 4 Este 10 Sudeste 0 -- -- 83
2018-05-10 08:00:00 17.1 0 Calma 6 Oeste 0 -- -- 85
2018-05-10 07:00:00 16.2 4 Sudeste 8 Oeste 0 -- -- 83
2018-05-10 06:00:00 17 2 Oeste 5 Oeste 0 -- -- 79
2018-05-10 05:00:00 16.7 0 Calma 12 Noroeste 0 -- -- 78
2018-05-10 04:00:00 19.6 8 Oeste 22 Noroeste 0 -- -- 60
2018-05-10 03:00:00 19.9 13 Noroeste 27 Noroeste 0 -- -- 62
2018-05-10 02:00:00 19.6 9 Noroeste 17 Noroeste 0 -- -- 64
2018-05-10 01:00:00 18.6 6 Sur 30 Noroeste 0 -- -- 75
2018-05-10 00:00:00 21.3 17 Oeste 44 Oeste 0 -- -- 57
2018-05-09 23:00:00 21.5 25 Noroeste 45 Oeste 0 -- -- 61
2018-05-09 22:00:00 21.6 15 Noroeste 42 Noroeste 0 -- -- 64
2018-05-09 21:00:00 20.1 5 Sudoeste 15 Sudeste 0 -- -- 73
2018-05-09 20:00:00 21 11 Sudeste 19 Oeste 0 -- -- 71
2018-05-09 19:00:00 21.5 4 Norte 30 Sudoeste 0 -- -- 65
2018-05-09 18:00:00 20.8 12 Oeste 41 Oeste 0 -- -- 67
2018-05-09 17:00:00 23.3 16 Oeste 27 Oeste 0 -- -- 61
2018-05-09 16:00:00 24.5 14 Oeste 25 Noroeste 0 -- -- 59
2018-05-09 15:00:00 24.6 12 Nordeste 19 Nordeste 0 -- -- 61
2018-05-09 14:00:00 24.4 12 Nordeste 26 Nordeste 0 -- -- 62
2018-05-09 13:00:00 23.4 12 Este 19 Este 0 -- -- 62
2018-05-09 12:00:00 21.9 10 Sudeste 15 Sudeste 0 -- -- 67
2018-05-09 11:00:00 21.7 8 Este 14 Este 0 -- -- 71
2018-05-09 10:00:00 22.1 5 Este 10 Este 0 -- -- 71
2018-05-09 09:00:00 20.2 0 Calma 5 Este 0 -- -- 73
2018-05-09 08:00:00 17.7 0 Calma 4 Sudeste 0 -- -- 78
2018-05-09 07:00:00 17.1 0 Calma 6 Oeste 0 -- -- 74
2018-05-09 06:00:00 16.5 2 Sur 6 Oeste 0 -- -- 78
2018-05-09 05:00:00 16.3 0 Calma 10 Oeste 0 -- -- 83
2018-05-09 04:00:00 16 2 Noroeste 6 Oeste 0 -- -- 88
2018-05-09 03:00:00 16 4 Sudeste 7 Noroeste 0 -- -- 89
2018-05-09 02:00:00 16.5 3 Sudoeste 14 Sudeste 0 -- -- 89
2018-05-09 01:00:00 18.9 4 Oeste 12 Oeste 0 -- -- 72
2018-05-09 00:00:00 16.5 4 Sudeste 6 Sudeste 0 -- -- 92
2018-05-08 23:00:00 16.5 4 Noroeste 11 Sudeste 0 -- -- 92
2018-05-08 22:00:00 18.3 4 Sudeste 13 Sudoeste 0 -- -- 82
2018-05-08 21:00:00 18.2 5 Oeste 10 Oeste 0 -- -- 85
2018-05-08 20:00:00 18.2 3 Nordeste 17 Sudeste 0 -- -- 84
2018-05-08 19:00:00 17.1 12 Este 16 Este 0 -- -- 89
2018-05-08 18:00:00 17.4 8 Sudeste 17 Sudeste 0 -- -- 86
2018-05-08 17:00:00 19.3 3 Este 24 Este 0 -- -- 78
2018-05-08 16:00:00 22.3 11 Este 23 Este 0 -- -- 66
2018-05-08 15:00:00 23.1 9 Este 19 Este 0 -- -- 63
2018-05-08 14:00:00 22.7 9 Este 15 Nordeste 0 -- -- 62
2018-05-08 13:00:00 23.1 9 Este 17 Nordeste 0 -- -- 60
2018-05-08 12:00:00 22.2 8 Norte 16 Nordeste 0 -- -- 62
2018-05-08 11:00:00 20 6 Nordeste 12 Este 0 -- -- 68
2018-05-08 10:00:00 19 6 Este 10 Este 0 -- -- 72
2018-05-08 09:00:00 19 4 Nordeste 8 Sudeste 0 -- -- 69
2018-05-08 08:00:00 16.8 0 Calma 8 Sudeste 0 -- -- 76
2018-05-08 07:00:00 16 5 Sur 9 Sudeste 0 -- -- 75
2018-05-08 06:00:00 16.2 3 Este 14 Sudoeste 0 -- -- 70
2018-05-08 05:00:00 17.3 12 Sudoeste 23 Oeste 0 -- -- 64
2018-05-08 04:00:00 17.1 11 Oeste 22 Oeste 0 -- -- 62
2018-05-08 03:00:00 16.7 9 Oeste 18 Oeste 0 -- -- 65
2018-05-08 02:00:00 16.3 5 Oeste 14 Sudoeste 0 -- -- 67
2018-05-08 01:00:00 16.3 5 Oeste 12 Oeste 0 -- -- 72
2018-05-08 00:00:00 15.8 3 Oeste 19 Oeste 0 -- -- 77
2018-05-07 23:00:00 16.1 7 Sudoeste 14 Oeste 0 -- -- 76
2018-05-07 22:00:00 16.4 9 Sudoeste 17 Oeste 0 -- -- 73
2018-05-07 21:00:00 16.9 5 Sudoeste 17 Sudoeste 0 -- -- 72
2018-05-07 20:00:00 17.4 13 Sudoeste 22 Oeste 0 -- -- 75
2018-05-07 19:00:00 18.8 11 Oeste 21 Oeste 0 -- -- 69
2018-05-07 18:00:00 17.9 6 Sudeste 20 Sudeste 0 -- -- 71
2018-05-07 17:00:00 19 12 Sur 29 Sur 0 -- -- 66
2018-05-07 16:00:00 20.9 14 Sur 30 Sudoeste 0 -- -- 63
2018-05-07 15:00:00 21.2 17 Este 26 Este 0 -- -- 57
2018-05-07 14:00:00 20.6 11 Sudeste 19 Este 0 -- -- 61
2018-05-07 13:00:00 20.2 10 Sudeste 19 Sudeste 0 -- -- 65
2018-05-07 12:00:00 20.4 15 Sudeste 26 Sudeste 0 -- -- 65
2018-05-07 11:00:00 20 9 Oeste 21 Noroeste 0 -- -- 63
2018-05-07 10:00:00 18.8 7 Sudeste 12 Sudeste 0 -- -- 72
2018-05-07 09:00:00 17.1 5 Este 13 Sudeste 0 -- -- 77
2018-05-07 08:00:00 15.2 3 Sur 23 Oeste 0 -- -- 82
2018-05-07 07:00:00 15.5 11 Oeste 42 Oeste 0 -- -- 80
2018-05-07 06:00:00 17.4 4 Noroeste 22 Sudoeste 0 -- -- 65
2018-05-07 05:00:00 17.5 8 Oeste 13 Oeste 0 -- -- 55
2018-05-07 04:00:00 15.4 8 Oeste 13 Oeste 0 -- -- 77
2018-05-07 03:00:00 15.2 3 Sur 13 Sudeste 0 -- -- 80
2018-05-07 02:00:00 15 4 Oeste 8 Oeste 0 -- -- 81
2018-05-07 01:00:00 14.9 0 Calma 8 Sudeste 0 -- -- 81
2018-05-07 00:00:00 15.2 5 Sur 9 Sur 0 -- -- 79
2018-05-06 23:00:00 15.9 5 Sur 14 Sur 0 -- -- 78
2018-05-06 22:00:00 16.2 8 Sur 13 Sur 0 -- -- 75
2018-05-06 21:00:00 16.9 9 Sur 26 Este 0 -- -- 75
2018-05-06 20:00:00 17.5 15 Este 26 Este 0 -- -- 71
2018-05-06 19:00:00 17.6 14 Este 26 Este 0 -- -- 75
2018-05-06 18:00:00 18 12 Este 24 Sudeste 0 -- -- 78
2018-05-06 17:00:00 18.2 12 Este 21 Este 0 -- -- 79
2018-05-06 16:00:00 17.8 16 Este 28 Este 0 -- -- 79
2018-05-06 15:00:00 18.9 16 Este 26 Este 0 -- -- 74
2018-05-06 14:00:00 18.9 16 Este 26 Nordeste 0 -- -- 70
2018-05-06 13:00:00 19.3 13 Este 23 Este 0 -- -- 65
2018-05-06 12:00:00 18.7 13 Sudeste 22 Este 0 -- -- 63
2018-05-06 11:00:00 19.3 12 Este 22 Este 0 -- -- 57
2018-05-06 10:00:00 18.6 11 Este 15 Este 0 -- -- 60
2018-05-06 09:00:00 18 5 Este 12 Este 0 -- -- 65
2018-05-06 08:00:00 15.2 0 Calma 7 Sur 0 -- -- 75
2018-05-06 07:00:00 13.4 4 Oeste 7 Sur 0 -- -- 87
2018-05-06 06:00:00 13.6 2 Sudoeste 8 Sudeste 0 -- -- 90
2018-05-06 05:00:00 14.2 6 Sur 10 Sudeste 0 -- -- 87
2018-05-06 04:00:00 14.9 5 Sudeste 12 Oeste 0 -- -- 77
2018-05-06 03:00:00 14 0 Calma 9 Sudeste 0 -- -- 78
2018-05-06 02:00:00 15.2 0 Calma 7 Nordeste 0 -- -- 73
2018-05-06 01:00:00 15.1 0 Calma 10 Sudeste 0 -- -- 75
2018-05-06 00:00:00 15.7 8 Sudeste 10 Sudeste 0 -- -- 68
2018-05-05 23:00:00 16.3 0 Calma 9 Oeste 0 -- -- 62
2018-05-05 22:00:00 16.1 5 Oeste 7 Oeste 0 -- -- 73
2018-05-05 21:00:00 16.7 0 Calma 4 Noroeste 0 -- -- 64
2018-05-05 20:00:00 17.3 2 Noroeste 6 Sudoeste 0 -- -- 71
2018-05-05 19:00:00 17.4 2 Sudeste 11 Sudeste 0 -- -- 63
2018-05-05 18:00:00 19.1 8 Sudeste 14 Este 0 -- -- 64
2018-05-05 17:00:00 19.4 9 Este 18 Este 0 -- -- 61
2018-05-05 16:00:00 19.3 13 Este 21 Este 0 -- -- 64
2018-05-05 15:00:00 19.3 13 Este 23 Este 0 -- -- 66
2018-05-05 14:00:00 18.9 10 Sudeste 19 Este 0 -- -- 66
2018-05-05 13:00:00 19.8 12 Este 18 Este 0 -- -- 57
2018-05-05 12:00:00 17.3 8 Sudeste 13 Sudeste 0 -- -- 76
2018-05-05 11:00:00 16.2 4 Nordeste 11 Este 0 -- -- 82
2018-05-05 10:00:00 15.6 8 Este 10 Sudeste 0 -- -- 87
2018-05-05 09:00:00 16 0 Calma 8 Oeste 0 -- -- 84
2018-05-05 08:00:00 12.8 3 Sudeste 9 Sudeste 0 -- -- 90
2018-05-05 07:00:00 14 5 Sudoeste 9 Sudoeste 0 -- -- 79
2018-05-05 06:00:00 13 4 Oeste 7 Sudoeste 0 -- -- 90
2018-05-05 05:00:00 13.1 3 Sudeste 8 Sudeste 0 -- -- 91
2018-05-05 04:00:00 13.4 0 Calma 5 Sudeste 0 -- -- 89
2018-05-05 03:00:00 13.5 4 Sur 8 Sudeste 0 -- -- 88
2018-05-05 02:00:00 13.8 2 Sudeste 5 Este 0 -- -- 90
2018-05-05 01:00:00 14 4 Sudeste 10 Este 0 -- -- 83
2018-05-05 00:00:00 14.3 5 Oeste 8 Sudoeste 0 -- -- 77
2018-05-04 23:00:00 14.1 2 Sudeste 5 Sudoeste 0 -- -- 78
2018-05-04 22:00:00 14.4 3 Sudeste 6 Este 0 -- -- 86
2018-05-04 21:00:00 15.3 0 Calma 6 Sur 0 -- -- 82
2018-05-04 20:00:00 17 3 Sudeste 9 Sudeste 0 -- -- 62
2018-05-04 19:00:00 18.1 6 Este 14 Sudeste 0 -- -- 62
2018-05-04 18:00:00 17.5 12 Sudeste 23 Sudeste 0 -- -- 73
2018-05-04 17:00:00 19.8 10 Sudeste 17 Norte 0 -- -- 61
2018-05-04 16:00:00 18.5 6 Noroeste 23 Norte 0 -- -- 54
2018-05-04 15:00:00 17.5 9 Este 18 Sudeste 0 -- -- 66
2018-05-04 14:00:00 18.7 13 Este 23 Este 0 -- -- 69
2018-05-04 13:00:00 18.5 15 Este 24 Este 0 -- -- 63
2018-05-04 12:00:00 19.2 13 Este 21 Sudeste 0 -- -- 71
2018-05-04 11:00:00 18.1 8 Sudeste 16 Este 0 -- -- 71
2018-05-04 10:00:00 16.7 4 Este 8 Sudeste 0 -- -- 63
2018-05-04 09:00:00 15.4 4 Oeste 8 Oeste 0 -- -- 73
2018-05-04 08:00:00 14 3 Sur 7 Sur 0 -- -- 85
2018-05-04 07:00:00 14.2 2 Nordeste 5 Sudeste 0 -- -- 66
2018-05-04 06:00:00 15.7 0 Calma 11 Noroeste 0 -- -- 57
2018-05-04 05:00:00 13.7 4 Oeste 10 Noroeste 0 -- -- 77
2018-05-04 04:00:00 13.9 5 Sur 8 Sudeste 0 -- -- 74
2018-05-04 03:00:00 14.5 0 Calma 11 Sur 0 -- -- 85
2018-05-04 02:00:00 16.8 0 Calma 12 Oeste 0 -- -- 51
2018-05-04 01:00:00 16.4 5 Oeste 10 Oeste 0 -- -- 46
2018-05-04 00:00:00 16.4 8 Oeste 13 Oeste 0 -- -- 46
2018-05-03 23:00:00 15.8 5 Sudeste 9 Sudeste 0 -- -- 50
2018-05-03 22:00:00 17.1 7 Noroeste 39 Oeste 0 -- -- 43
2018-05-03 21:00:00 17.4 19 Sudoeste 45 Oeste 0 -- -- 40
2018-05-03 20:00:00 17.8 21 Oeste 33 Oeste 0 -- -- 42
2018-05-03 19:00:00 20.5 7 Noroeste 23 Oeste 0 -- -- 41
2018-05-03 18:00:00 20.9 13 Oeste 24 Oeste 0 -- -- 44
2018-05-03 17:00:00 21.5 13 Oeste 25 Oeste 0 -- -- 34
2018-05-03 16:00:00 21.7 13 Sudoeste 24 Oeste 0 -- -- 38
2018-05-03 15:00:00 21.7 10 Sudeste 24 Sur 0 -- -- 39
2018-05-03 14:00:00 21.7 10 Nordeste 18 Este 0 -- -- 50
2018-05-03 13:00:00 20.5 13 Nordeste 19 Nordeste 0 -- -- 57
2018-05-03 12:00:00 18.8 8 Este 14 Este 0 -- -- 59
2018-05-03 11:00:00 19.6 5 Este 13 Nordeste 0 -- -- 53
2018-05-03 10:00:00 18.6 6 Este 9 Sudeste 0 -- -- 55
2018-05-03 09:00:00 17.9 2 Norte 9 Oeste 0 -- -- 52
2018-05-03 08:00:00 14.7 7 Oeste 14 Oeste 0 -- -- 51
2018-05-03 07:00:00 13 0 Calma 13 Oeste 0 -- -- 56
2018-05-03 06:00:00 15.1 8 Oeste 15 Oeste 0 -- -- 47
2018-05-03 05:00:00 15.2 5 Oeste 16 Sudoeste 0 -- -- 48
2018-05-03 04:00:00 15 9 Sudoeste 20 Oeste 0 -- -- 50
2018-05-03 03:00:00 15.2 10 Oeste 15 Oeste 0 -- -- 50
2018-05-03 02:00:00 15.2 11 Oeste 18 Oeste 0 -- -- 51
2018-05-03 01:00:00 14.9 8 Oeste 13 Oeste 0 -- -- 53
2018-05-03 00:00:00 14.2 6 Sudoeste 9 Sudoeste 0 -- -- 58
2018-05-02 23:00:00 13.8 2 Oeste 5 Este 0 -- -- 61
2018-05-02 22:00:00 14.3 4 Sudeste 17 Noroeste 0 -- -- 63
2018-05-02 21:00:00 15.3 11 Noroeste 30 Oeste 0 -- -- 65
2018-05-02 20:00:00 16.2 22 Oeste 39 Oeste 0 -- -- 62
2018-05-02 19:00:00 17.1 10 Oeste 24 Oeste 0 -- -- 54
2018-05-02 18:00:00 18.7 13 Oeste 25 Oeste 0 -- -- 42
2018-05-02 17:00:00 19.1 13 Oeste 27 Oeste 0 -- -- 41
2018-05-02 16:00:00 19.2 11 Sudoeste 25 Oeste 0 -- -- 44
2018-05-02 15:00:00 19.5 8 Sudoeste 20 Sudoeste 0 -- -- 38
2018-05-02 14:00:00 19 9 Sudoeste 22 Sur 0 -- -- 50
2018-05-02 13:00:00 18.8 12 Nordeste 19 Nordeste 0 -- -- 54
2018-05-02 12:00:00 17.2 10 Este 24 Este 0 -- -- 59
2018-05-02 11:00:00 18.1 5 Nordeste 16 Norte 0 -- -- 55
2018-05-02 10:00:00 16.8 6 Este 13 Noroeste 0 -- -- 53
2018-05-02 09:00:00 15 10 Noroeste 19 Noroeste 0 -- -- 44
2018-05-02 08:00:00 12.8 8 Oeste 18 Oeste 0 -- -- 48
2018-05-02 07:00:00 11.7 12 Oeste 19 Oeste 0 -- -- 49
2018-05-02 06:00:00 11.6 10 Oeste 19 Oeste 0 -- -- 51
2018-05-02 05:00:00 11.5 6 Oeste 16 Noroeste 0 -- -- 53
2018-05-02 04:00:00 10.6 3 Sur 11 Noroeste 0 -- -- 61
2018-05-02 03:00:00 11.4 6 Oeste 16 Oeste 0 -- -- 57
2018-05-02 02:00:00 10.9 8 Oeste 15 Oeste 0 -- -- 60
2018-05-02 01:00:00 11.4 9 Oeste 15 Oeste 0 -- -- 59
2018-05-02 00:00:00 10.9 10 Oeste 15 Oeste 0 -- -- 63
2018-05-01 23:00:00 11.1 7 Oeste 12 Oeste 0 -- -- 63
2018-05-01 22:00:00 11.2 8 Sur 13 Sur 0 -- -- 64
2018-05-01 21:00:00 11.8 0 Calma 9 Noroeste 0 -- -- 63
2018-05-01 20:00:00 13.9 3 Nordeste 32 Oeste 0 -- -- 54
2018-05-01 19:00:00 14.7 23 Oeste 39 Oeste 0 -- -- 50
2018-05-01 18:00:00 13.7 15 Noroeste 51 Oeste 0 -- -- 50
2018-05-01 17:00:00 12.1 39 Oeste 59 Noroeste 0.2 -- -- 58
2018-05-01 16:00:00 15.2 27 Oeste 47 Noroeste 0 -- -- 52
2018-05-01 15:00:00 14.9 16 Noroeste 34 Noroeste 0 -- -- 53
2018-05-01 14:00:00 16.5 7 Oeste 23 Sudeste 0 -- -- 53
2018-05-01 13:00:00 15.6 7 Sudeste 22 Sudeste 0 -- -- 59
2018-05-01 12:00:00 16.7 10 Este 16 Este 0 -- -- 54
2018-05-01 11:00:00 16.6 7 Este 15 Este 0 -- -- 57
2018-05-01 10:00:00 14.9 5 Sudeste 13 Sudeste 0 -- -- 56
2018-05-01 09:00:00 15.7 4 Sudeste 8 Sudeste 0 -- -- 53
2018-05-01 08:00:00 12.4 2 Oeste 16 Oeste 0 -- -- 61
2018-05-01 07:00:00 11.7 12 Oeste 15 Oeste 0 -- -- 62
2018-05-01 06:00:00 11.8 5 Oeste 13 Sudoeste 0 -- -- 65
2018-05-01 05:00:00 12.2 7 Sudoeste 13 Oeste 0 -- -- 65
2018-05-01 04:00:00 13 7 Oeste 14 Sudoeste 0 -- -- 56
2018-05-01 03:00:00 13.3 6 Oeste 17 Sudoeste 0 -- -- 51
2018-05-01 02:00:00 13.2 10 Oeste 20 Oeste 0 -- -- 50
2018-05-01 01:00:00 14.3 15 Oeste 31 Oeste 0 -- -- 45
2018-05-01 00:00:00 14.8 21 Oeste 45 Oeste 0 -- -- 44
2018-04-30 23:00:00 15 27 Oeste 57 Oeste 0 -- -- 45
2018-04-30 22:00:00 15.5 32 Oeste 60 Oeste 0 -- -- 44
2018-04-30 21:00:00 15.1 31 Oeste 46 Oeste 0 -- -- 54
2018-04-30 20:00:00 15.1 26 Oeste 49 Oeste 0 -- -- 65
2018-04-30 19:00:00 16 33 Oeste 53 Oeste 0 -- -- 61
2018-04-30 18:00:00 16.3 27 Oeste 50 Oeste 0 -- -- 64
2018-04-30 17:00:00 17 28 Sudoeste 48 Oeste 0 -- -- 60
2018-04-30 16:00:00 16.7 33 Oeste 56 Oeste 0 -- -- 59
2018-04-30 15:00:00 16 27 Oeste 48 Oeste 0 -- -- 56
2018-04-30 14:00:00 16.4 26 Oeste 45 Oeste 0 -- -- 53
2018-04-30 13:00:00 16.2 16 Oeste 38 Oeste 0 -- -- 54
2018-04-30 12:00:00 16.1 14 Oeste 23 Oeste 0 -- -- 49
2018-04-30 11:00:00 15.6 8 Sudeste 15 Este 0 -- -- 56
2018-04-30 10:00:00 14.8 7 Sudeste 11 Sudeste 0 -- -- 58
2018-04-30 09:00:00 13.4 4 Noroeste 19 Noroeste 0 -- -- 54
2018-04-30 08:00:00 13.1 5 Norte 36 Oeste 0 -- -- 49
2018-04-30 07:00:00 13.1 19 Noroeste 35 Oeste 0 -- -- 48
2018-04-30 06:00:00 12.5 22 Oeste 32 Oeste 0 -- -- 57
2018-04-30 05:00:00 13.1 15 Oeste 33 Oeste 0 -- -- 52
2018-04-30 04:00:00 13.3 22 Oeste 39 Oeste 0 -- -- 54
2018-04-30 03:00:00 13.3 19 Oeste 33 Oeste 0 -- -- 55
2018-04-30 02:00:00 13.5 19 Oeste 36 Oeste 0 -- -- 57
2018-04-30 01:00:00 13.8 23 Oeste 36 Sudoeste 0 -- -- 57
2018-04-30 00:00:00 14.2 22 Oeste 40 Oeste 0 -- -- 56
2018-04-29 23:00:00 13.6 16 Oeste 33 Oeste 0 -- -- 60
2018-04-29 22:00:00 13.7 21 Oeste 41 Oeste 0 -- -- 69
2018-04-29 21:00:00 13.9 24 Oeste 49 Oeste 0 -- -- 72
2018-04-29 20:00:00 14.4 30 Oeste 60 Oeste 0 -- -- 68
2018-04-29 19:00:00 15.4 27 Oeste 52 Oeste 0 -- -- 68
2018-04-29 18:00:00 16 25 Oeste 59 Oeste 0 -- -- 64
2018-04-29 17:00:00 16.9 20 Oeste 51 Oeste 0 -- -- 54
2018-04-29 16:00:00 16.6 26 Oeste 50 Oeste 0 -- -- 58
2018-04-29 15:00:00 16.2 26 Oeste 52 Sudoeste 0 -- -- 58
2018-04-29 14:00:00 16 23 Oeste 53 Oeste 0 -- -- 57
2018-04-29 13:00:00 16.2 28 Oeste 54 Oeste 0 -- -- 49
2018-04-29 12:00:00 16 26 Oeste 52 Oeste 0 -- -- 49
2018-04-29 11:00:00 14.7 23 Oeste 46 Oeste 0 -- -- 51
2018-04-29 10:00:00 14.7 18 Oeste 45 Oeste 0 -- -- 51
2018-04-29 09:00:00 13.7 21 Oeste 38 Noroeste 0 -- -- 52
2018-04-29 08:00:00 12.1 21 Oeste 42 Oeste 0 -- -- 56
2018-04-29 07:00:00 12.1 23 Oeste 42 Oeste 0 -- -- 58
2018-04-29 06:00:00 11.9 16 Oeste 42 Oeste 0 -- -- 76
2018-04-29 05:00:00 12 15 Oeste 37 Oeste 0 -- -- 83
2018-04-29 04:00:00 12.1 21 Oeste 43 Oeste 0 -- -- 78
2018-04-29 03:00:00 12.7 29 Oeste 50 Oeste 0 -- -- 75
2018-04-29 02:00:00 12.8 29 Oeste 60 Oeste 0 -- -- 70
2018-04-29 01:00:00 12.9 31 Oeste 57 Oeste 0 -- -- 74
2018-04-29 00:00:00 13.5 20 Oeste 44 Oeste 0 -- -- 74
2018-04-28 23:00:00 14.3 31 Oeste 53 Oeste 0 -- -- 59
2018-04-28 22:00:00 14.6 27 Oeste 41 Oeste 0 -- -- 59
2018-04-28 21:00:00 15.9 21 Oeste 38 Oeste 0 -- -- 57
2018-04-28 20:00:00 16.6 22 Oeste 42 Noroeste 0 -- -- 60
2018-04-28 19:00:00 18.3 28 Oeste 48 Oeste 0 -- -- 57
2018-04-28 18:00:00 19.7 22 Oeste 38 Oeste 0 -- -- 56
2018-04-28 17:00:00 19.1 28 Oeste 53 Oeste 0 -- -- 64
2018-04-28 16:00:00 19 26 Oeste 50 Oeste 0 -- -- 64
2018-04-28 15:00:00 19.4 27 Oeste 44 Oeste 0 -- -- 63
2018-04-28 14:00:00 19.8 24 Oeste 44 Oeste 0 -- -- 63
2018-04-28 13:00:00 19.7 29 Oeste 46 Oeste 0 -- -- 59
2018-04-28 12:00:00 21.3 22 Oeste 37 Oeste 0 -- -- 52
2018-04-28 11:00:00 21.8 13 Oeste 26 Oeste 0 -- -- 48
2018-04-28 10:00:00 20.7 6 Norte 20 Oeste 0 -- -- 68
2018-04-28 09:00:00 20.3 2 Nordeste 5 Nordeste 0 -- -- 64
2018-04-28 08:00:00 16.6 0 Calma 4 Sudoeste 0 -- -- 76
2018-04-28 07:00:00 16.2 0 Calma 4 Oeste 0 -- -- 73
2018-04-28 06:00:00 16.8 2 Oeste 6 Sudoeste 0 -- -- 75
2018-04-28 05:00:00 16.5 2 Oeste 4 Sur 0 -- -- 78
2018-04-28 04:00:00 17.8 3 Sur 9 Oeste 0 -- -- 73
2018-04-28 03:00:00 17 2 Oeste 9 Oeste 0 -- -- 76
2018-04-28 02:00:00 17.2 3 Oeste 6 Oeste 0 -- -- 78
2018-04-28 01:00:00 16.6 0 Calma 5 Sudoeste 0 -- -- 82
2018-04-28 00:00:00 16.9 3 Sudoeste 9 Sur 0 -- -- 81